Terminal Aerodrome Forecast
Issued by NWS

Home | Current Version | Previous Version | Text Only | Print | Product List | Glossary On
Versions: 1 2 3 4 5 6 7 8 9 10 11 12 13 14
000
FTUS43 KDDC 140400 AAA
TAFGCK
TAF AMD
KGCK 140416Z 1404/1424 36025G35KT 2SM -SN OVC010
      TEMPO 1404/1408 1/4SM +SN VV005
     FM140800 36015G25KT 2SM -SN OVC007
     FM141400 36020G28KT P6SM BKN010=

USA.gov is the U.S. government's official web portal to all federal, state and local government web resources and services.